Aérodrome :
LOGIN :

S'inscrire | Disclaimer

   EN    FR    IT 

 










Légende :    VFR   VFR Marginal   IFR   IFR Intensif   IFR Très Intensif
Visi : 
Plafond : 
>= 8 km
>= 3000ft
5 à 8 km
1000 à 3000 ft
1500m à 5 km
500 à 1000 ft
800 à 1500m
200 à 500 ft
< 800m
< 200 ft
Symboles :   Orages  Brouillard  Fortes neiges  Fortes précipitations  Vent > 20 kt
SIGMETs :   Divers  Orages  Givrage  Turbulence  Onde Orograph.  Cendres Volcan.






- Altitude de l'aérodrome : 1 ft


EGCK - Caernarfon

DERNIER METAR :
  • 180320Z AUTO 34004KT 9999 FEW029/// 04/01 Q1023

METARs EXPIRÉS :
  • 180250Z AUTO 34008KT 9999 SCT026/// 06/02 Q1022
  • 180220Z AUTO 30013KT 9999 FEW025/// 07/02 Q1022
  • 180150Z AUTO 31011KT 9999 SCT025/// 06/02 Q1022
  • 180120Z AUTO 31013KT 9999 SCT025/// 07/02 Q1022
  • 180050Z AUTO 29013KT 9999 BKN024/// 07/02 Q1021

TAF TAF EGCK
Valide du 18 à 03h jusqu'au 18 à 12h UTC


180158Z 1803/1812 30008KT 9999 FEW030



MET'MAP, la Météo Aéronautique d'un coup d'oeil ! - Copyright ORBIFLY Décembre 2007 - Disclaimer

ORBIFLY MET'MAP TEAM :

Programmation & Développement : Alexandra Zaïnal
Sur une idée originale de : Baudouin d'Aumeries
Assistance à la programmation : Marc-Olivier Méhu
Soutien technique & logistique : Manuel Goepfert

Contact : metmap@orbifly.com




SOURCES & CREDITS :

   NOAA